Time;durP1;ratioP1;P1;durP2;ratioP2;P2;SDS_P1;SDS_P2;PMS_P1;PMS_P2;Temp;Humidity;BMP_temperature;BMP_pressure;BME280_temperature;BME280_humidity;BME280_pressure;Samples;Min_cycle;Max_cycle;Signal;HPM_P1;HPM_P2
2023/07/15 04:04:46;;;;;;;2.83;2.63;;;18.80;99.90;;;;;;5873570;23;20566;-73
2023/07/15 04:07:12;;;;;;;2.60;2.50;;;18.80;99.90;;;;;;4995393;28;20869;-73
2023/07/15 04:09:38;;;;;;;2.40;2.20;;;18.80;99.90;;;;;;4995362;28;20399;-75
2023/07/15 04:12:05;;;;;;;2.80;2.60;;;18.80;99.90;;;;;;4977930;28;20476;-73
2023/07/15 04:14:31;;;;;;;2.47;2.27;;;18.80;99.90;;;;;;4994852;28;20185;-74
2023/07/15 04:16:56;;;;;;;2.40;2.20;;;18.80;99.90;;;;;;4995199;28;20406;-73
2023/07/15 04:19:22;;;;;;;2.20;2.10;;;18.80;99.90;;;;;;4994943;28;20565;-73
2023/07/15 04:21:47;;;;;;;1.83;1.73;;;18.90;99.90;;;;;;4995366;28;20687;-74
2023/07/15 04:24:13;;;;;;;2.37;2.17;;;18.90;99.90;;;;;;4994645;28;20179;-73
2023/07/15 04:26:39;;;;;;;2.60;2.40;;;18.90;99.90;;;;;;4994852;28;20166;-74
2023/07/15 04:29:06;;;;;;;1.90;1.80;;;19.00;99.90;;;;;;4994685;28;20250;-73
2023/07/15 04:31:31;;;;;;;2.37;2.27;;;19.30;99.90;;;;;;4995038;28;20461;-73
2023/07/15 04:33:57;;;;;;;2.90;2.70;;;19.50;99.90;;;;;;4993985;28;20417;-74
2023/07/15 04:36:23;;;;;;;2.60;2.40;;;19.70;99.90;;;;;;4994232;28;20203;-73
2023/07/15 04:38:49;;;;;;;3.17;2.20;;;20.00;99.90;;;;;;4995044;28;20179;-73
2023/07/15 04:41:15;;;;;;;2.80;2.60;;;20.40;99.90;;;;;;4995002;28;20183;-73
2023/07/15 04:43:41;;;;;;;2.23;2.07;;;20.80;99.90;;;;;;4994520;28;20411;-76
2023/07/15 04:46:07;;;;;;;1.93;1.83;;;21.20;99.90;;;;;;4994484;28;20187;-75
2023/07/15 04:48:33;;;;;;;2.50;2.30;;;21.40;99.90;;;;;;4976893;28;20461;-74
2023/07/15 04:51:00;;;;;;;2.43;2.23;;;21.50;99.90;;;;;;4994554;28;20394;-74
2023/07/15 04:53:26;;;;;;;1.90;1.80;;;21.60;99.90;;;;;;4994289;28;20759;-74
2023/07/15 04:55:52;;;;;;;1.70;1.60;;;21.70;99.90;;;;;;4977108;28;20518;-74
2023/07/15 04:58:19;;;;;;;2.57;2.33;;;21.70;99.90;;;;;;4977121;28;20415;-74
2023/07/15 05:00:50;;;;;;;2.07;1.97;;;21.60;99.90;;;;;;4994519;28;20442;-74
2023/07/15 05:03:17;;;;;;;2.20;2.07;;;21.50;99.90;;;;;;4994274;28;20380;-74
2023/07/15 05:05:44;;;;;;;1.80;1.70;;;21.40;99.90;;;;;;4993999;28;20454;-74
2023/07/15 05:08:12;;;;;;;1.93;1.83;;;21.40;99.90;;;;;;4994379;28;20428;-74
2023/07/15 05:10:41;;;;;;;1.87;1.77;;;21.40;99.90;;;;;;4994356;28;20385;-74
2023/07/15 05:13:07;;;;;;;1.87;1.77;;;21.40;99.90;;;;;;4994262;28;20403;-74
2023/07/15 05:15:33;;;;;;;2.23;2.03;;;21.60;99.90;;;;;;4976415;28;20440;-74
2023/07/15 05:18:00;;;;;;;1.87;1.77;;;21.70;99.90;;;;;;4994185;28;20857;-74
2023/07/15 05:20:25;;;;;;;2.00;1.90;;;21.90;99.90;;;;;;4994287;28;20429;-74
2023/07/15 05:22:51;;;;;;;2.33;2.13;;;22.00;99.90;;;;;;4993812;28;20453;-73
2023/07/15 05:25:17;;;;;;;1.67;1.57;;;22.10;99.90;;;;;;4993817;28;20436;-73
2023/07/15 05:27:43;;;;;;;2.13;2.00;;;22.10;99.90;;;;;;4993836;28;20269;-74
2023/07/15 05:30:09;;;;;;;1.90;1.80;;;22.20;99.90;;;;;;4976484;28;20408;-74
2023/07/15 05:32:35;;;;;;;1.70;1.60;;;22.20;99.90;;;;;;4994582;28;20298;-74
2023/07/15 05:35:00;;;;;;;1.90;1.80;;;22.40;99.90;;;;;;4993728;28;20518;-74
2023/07/15 05:37:26;;;;;;;1.87;1.73;;;22.50;99.90;;;;;;4994083;28;20633;-74
2023/07/15 05:39:51;;;;;;;1.83;1.73;;;22.50;99.90;;;;;;4994165;28;20175;-73
2023/07/15 05:42:18;;;;;;;2.07;1.97;;;22.50;99.90;;;;;;4994035;28;20180;-73
2023/07/15 05:44:44;;;;;;;2.00;1.90;;;22.60;99.90;;;;;;4993663;28;20199;-74
2023/07/15 05:47:09;;;;;;;2.17;1.97;;;22.70;99.90;;;;;;4993837;28;20409;-74
2023/07/15 05:49:35;;;;;;;2.53;1.70;;;22.80;99.90;;;;;;4993905;28;20168;-75
2023/07/15 05:52:01;;;;;;;1.73;1.63;;;22.90;99.90;;;;;;4993917;28;20172;-75
2023/07/15 05:54:26;;;;;;;1.60;1.50;;;23.10;99.90;;;;;;4993529;28;20194;-74
2023/07/15 05:56:52;;;;;;;2.10;2.00;;;23.20;99.90;;;;;;4993891;28;20620;-74
2023/07/15 05:59:18;;;;;;;1.80;1.70;;;23.30;99.90;;;;;;4993770;28;20200;-75
2023/07/15 06:01:46;;;;;;;1.97;1.87;;;23.50;99.90;;;;;;4996435;28;20389;-74
2023/07/15 06:04:11;;;;;;;2.03;1.93;;;23.70;99.90;;;;;;4997265;28;20386;-74
2023/07/15 06:06:37;;;;;;;2.30;2.20;;;24.00;99.90;;;;;;4997459;28;20426;-74
2023/07/15 06:09:03;;;;;;;1.87;1.77;;;24.20;99.90;;;;;;4997627;28;20253;-74
2023/07/15 06:11:28;;;;;;;1.87;1.77;;;24.40;99.40;;;;;;4997707;28;20654;-74
2023/07/15 06:13:54;;;;;;;1.97;1.87;;;24.60;99.30;;;;;;4979607;28;20171;-74
2023/07/15 06:16:19;;;;;;;1.90;1.77;;;24.70;98.60;;;;;;4997340;28;20189;-74
2023/07/15 06:18:45;;;;;;;1.60;1.50;;;24.80;98.20;;;;;;4997633;28;20278;-73
2023/07/15 06:21:10;;;;;;;1.83;1.73;;;24.90;98.20;;;;;;4996692;28;20186;-72
2023/07/15 06:23:36;;;;;;;2.17;2.07;;;25.00;97.60;;;;;;4995967;28;20186;-72
2023/07/15 06:26:02;;;;;;;1.90;1.80;;;25.20;96.40;;;;;;4996613;28;20191;-72
2023/07/15 06:28:28;;;;;;;1.20;1.20;;;25.20;97.00;;;;;;4976778;28;20206;-73
2023/07/15 06:31:04;;;;;;;1.60;1.50;;;25.40;96.30;;;;;;4994314;28;20211;-74
2023/07/15 06:33:30;;;;;;;1.83;1.73;;;25.60;95.60;;;;;;4974322;28;20594;-73
2023/07/15 06:35:56;;;;;;;2.00;1.90;;;25.80;95.00;;;;;;4997063;28;20509;-73
2023/07/15 06:38:22;;;;;;;1.77;1.67;;;25.90;94.70;;;;;;4996785;28;20440;-74
2023/07/15 06:40:47;;;;;;;1.60;1.50;;;26.00;93.30;;;;;;4996859;28;20407;-75
2023/07/15 06:43:13;;;;;;;2.00;1.90;;;26.20;92.90;;;;;;4996110;28;20393;-74
2023/07/15 06:45:39;;;;;;;1.80;1.70;;;26.30;93.10;;;;;;4996565;28;20191;-74
2023/07/15 06:48:04;;;;;;;1.97;1.87;;;26.50;92.00;;;;;;4996820;28;20577;-75
2023/07/15 06:50:30;;;;;;;1.50;1.40;;;26.70;91.40;;;;;;4996853;28;20414;-75
2023/07/15 06:52:56;;;;;;;1.87;1.77;;;26.80;90.90;;;;;;4982136;28;20226;-75
2023/07/15 06:55:21;;;;;;;1.80;1.70;;;27.00;90.60;;;;;;4976621;28;20189;-75
2023/07/15 06:57:48;;;;;;;1.43;1.33;;;27.10;90.60;;;;;;4977206;28;20177;-74
2023/07/15 07:00:14;;;;;;;1.80;1.70;;;27.30;90.50;;;;;;4959536;28;20192;-75
2023/07/15 07:02:39;;;;;;;1.70;1.60;;;27.50;90.20;;;;;;4979659;28;20522;-75
2023/07/15 07:05:05;;;;;;;1.90;1.80;;;27.70;89.40;;;;;;4995726;28;20440;-75
2023/07/15 07:07:31;;;;;;;1.70;1.60;;;28.00;88.60;;;;;;4996332;28;20200;-75
2023/07/15 07:09:56;;;;;;;1.93;1.80;;;28.10;87.90;;;;;;4996140;28;20502;-75
2023/07/15 07:12:22;;;;;;;2.03;1.93;;;28.30;86.60;;;;;;4977194;28;20170;-74
2023/07/15 07:14:48;;;;;;;2.13;2.03;;;28.50;86.50;;;;;;4995340;28;20202;-74
2023/07/15 07:17:13;;;;;;;1.93;1.60;;;28.70;85.80;;;;;;4995648;28;20417;-74
2023/07/15 07:19:39;;;;;;;1.63;1.53;;;28.90;85.50;;;;;;4996261;28;20169;-74
2023/07/15 07:22:05;;;;;;;1.93;1.77;;;29.20;84.70;;;;;;4995842;28;20174;-71
2023/07/15 07:24:30;;;;;;;1.97;1.87;;;29.30;84.90;;;;;;4995432;28;20183;-70
2023/07/15 07:26:57;;;;;;;1.70;1.60;;;29.50;82.10;;;;;;4977988;28;20573;-70
2023/07/15 07:29:23;;;;;;;2.20;2.10;;;29.70;79.70;;;;;;4995544;28;20212;-68
2023/07/15 07:31:52;;;;;;;1.73;1.63;;;30.10;79.40;;;;;;4995570;28;20891;-69
2023/07/15 07:34:17;;;;;;;2.23;2.00;;;30.50;79.70;;;;;;4995395;28;20378;-69
2023/07/15 07:36:44;;;;;;;2.23;2.03;;;31.30;78.60;;;;;;4995862;28;20522;-71
2023/07/15 07:39:09;;;;;;;1.87;1.77;;;32.20;73.60;;;;;;4995753;28;20263;-71
2023/07/15 07:41:35;;;;;;;1.50;1.40;;;32.90;71.50;;;;;;4995900;28;20897;-73
2023/07/15 07:44:00;;;;;;;2.07;1.97;;;33.70;69.60;;;;;;4979332;28;20186;-71
2023/07/15 07:46:26;;;;;;;1.80;1.70;;;34.60;68.50;;;;;;4976433;28;20646;-76
2023/07/15 07:48:52;;;;;;;2.20;2.10;;;35.70;66.90;;;;;;4958783;28;20232;-71
2023/07/15 07:51:17;;;;;;;1.70;1.60;;;36.80;61.60;;;;;;4958953;28;20462;-68
2023/07/15 07:53:43;;;;;;;2.10;2.00;;;37.60;59.20;;;;;;4975780;28;20176;-68
2023/07/15 07:56:11;;;;;;;2.20;2.10;;;38.40;58.40;;;;;;4975829;28;20204;-65
2023/07/15 07:58:40;;;;;;;2.10;2.00;;;39.30;56.50;;;;;;4976227;28;20180;-66
2023/07/15 08:01:06;;;;;;;2.37;2.27;;;39.90;55.10;;;;;;4987368;28;20423;-68
2023/07/15 08:03:32;;;;;;;2.27;2.07;;;40.50;54.10;;;;;;4995197;28;20419;-66
2023/07/15 08:05:58;;;;;;;1.97;1.87;;;40.90;53.20;;;;;;4994735;28;20207;-66
2023/07/15 08:08:24;;;;;;;2.60;2.40;;;41.50;53.40;;;;;;4995130;28;20213;-67
2023/07/15 08:10:50;;;;;;;2.33;2.23;;;42.10;52.00;;;;;;4995251;28;20418;-67
2023/07/15 08:13:15;;;;;;;2.57;2.47;;;42.10;50.80;;;;;;4977814;28;20187;-68
2023/07/15 08:15:41;;;;;;;2.27;2.17;;;42.10;50.80;;;;;;4995057;28;20203;-68
2023/07/15 08:18:07;;;;;;;2.60;2.50;;;42.10;50.00;;;;;;4995196;28;20191;-68
2023/07/15 08:20:33;;;;;;;2.63;2.50;;;42.30;50.20;;;;;;4994404;28;20172;-68
2023/07/15 08:22:59;;;;;;;3.47;3.27;;;42.50;50.10;;;;;;4977132;28;20197;-69
2023/07/15 08:25:25;;;;;;;3.83;3.63;;;43.00;49.10;;;;;;4993229;28;20477;-70
2023/07/15 08:27:51;;;;;;;2.50;2.40;;;43.50;48.70;;;;;;4977399;28;20780;-69
2023/07/15 08:30:18;;;;;;;2.40;2.20;;;43.10;47.00;;;;;;4994780;28;20441;-68
2023/07/15 08:32:44;;;;;;;2.50;2.40;;;42.50;47.70;;;;;;4977370;28;20433;-68
2023/07/15 08:35:10;;;;;;;2.27;2.17;;;41.90;48.20;;;;;;4994294;28;20439;-67
2023/07/15 08:37:35;;;;;;;2.23;2.10;;;41.10;48.50;;;;;;4994605;28;20202;-68
2023/07/15 08:40:01;;;;;;;2.37;2.27;;;40.10;49.50;;;;;;4994331;28;20613;-68
2023/07/15 08:42:29;;;;;;;2.13;2.03;;;39.10;51.10;;;;;;4995106;28;20621;-67
2023/07/15 08:44:55;;;;;;;2.07;1.97;;;38.10;51.50;;;;;;4994541;28;20202;-68
2023/07/15 08:47:23;;;;;;;2.50;2.40;;;37.30;52.30;;;;;;4986401;28;20430;-68
2023/07/15 08:49:50;;;;;;;2.10;2.00;;;36.80;53.10;;;;;;4975541;28;20404;-68
2023/07/15 08:52:18;;;;;;;2.03;1.93;;;36.70;54.20;;;;;;4975258;28;20411;-69
2023/07/15 08:54:48;;;;;;;2.23;2.03;;;36.40;54.00;;;;;;4974518;28;20518;-68
2023/07/15 08:57:18;;;;;;;2.00;1.90;;;36.20;54.40;;;;;;4974970;28;20499;-67
2023/07/15 08:59:48;;;;;;;2.57;2.37;;;36.20;55.00;;;;;;4975379;28;20412;-68
2023/07/15 09:02:13;;;;;;;2.17;1.70;;;36.10;55.80;;;;;;4978615;28;20433;-68
2023/07/15 09:04:40;;;;;;;2.17;2.07;;;36.10;54.90;;;;;;4992287;28;20797;-68
2023/07/15 09:07:06;;;;;;;2.43;2.23;;;36.10;55.10;;;;;;4993923;28;20187;-68
2023/07/15 09:09:34;;;;;;;2.17;2.07;;;36.20;54.60;;;;;;4994091;28;20486;-68
2023/07/15 09:12:04;;;;;;;2.40;2.00;;;36.20;54.00;;;;;;4994066;28;20465;-68
2023/07/15 09:14:29;;;;;;;1.60;1.50;;;36.10;53.10;;;;;;4993666;28;20791;-68
2023/07/15 09:16:57;;;;;;;2.07;1.87;;;36.00;52.90;;;;;;4975807;28;20420;-68
2023/07/15 09:19:25;;;;;;;2.33;2.23;;;35.80;53.90;;;;;;4957259;28;20247;-69
2023/07/15 09:22:04;;;;;;;2.83;2.63;;;35.60;53.80;;;;;;4974675;28;20419;-68
2023/07/15 09:24:31;;;;;;;2.03;1.93;;;35.60;54.00;;;;;;4974117;28;20463;-69
2023/07/15 09:26:58;;;;;;;3.17;2.83;;;35.60;54.50;;;;;;4974564;28;20408;-68
2023/07/15 09:29:24;;;;;;;2.60;2.40;;;35.80;53.90;;;;;;4974580;28;20415;-69
2023/07/15 09:31:50;;;;;;;1.83;1.70;;;36.50;53.20;;;;;;4993811;28;20423;-69
2023/07/15 09:34:18;;;;;;;2.40;2.20;;;37.60;53.00;;;;;;4993715;28;20656;-69
2023/07/15 09:36:44;;;;;;;2.10;2.00;;;39.00;51.80;;;;;;4993335;28;20187;-67
2023/07/15 09:39:14;;;;;;;2.30;2.20;;;40.60;49.10;;;;;;4993980;28;20462;-67
2023/07/15 09:41:40;;;;;;;3.00;2.80;;;42.20;47.40;;;;;;4993956;28;20172;-69
2023/07/15 09:44:07;;;;;;;3.30;3.10;;;43.50;45.60;;;;;;4993361;28;20422;-68
2023/07/15 09:46:33;;;;;;;3.47;3.27;;;44.70;43.60;;;;;;4993549;28;20403;-68
2023/07/15 09:48:59;;;;;;;2.67;2.58;;;45.80;43.30;;;;;;4993828;28;20417;-68
2023/07/15 09:51:25;;;;;;;3.10;3.00;;;46.60;42.00;;;;;;4993828;28;20509;-68
2023/07/15 09:53:53;;;;;;;3.20;3.10;;;46.70;40.80;;;;;;4993498;28;20175;-67
2023/07/15 09:56:37;;;;;;;3.50;3.40;;;47.00;40.70;;;;;;4993495;28;20183;-68
2023/07/15 09:59:17;;;;;;;3.80;3.70;;;47.20;39.60;;;;;;4986317;28;20207;-67
2023/07/15 10:02:05;;;;;;;4.00;3.90;;;47.80;39.40;;;;;;4974248;28;20248;-67
2023/07/15 10:04:35;;;;;;;3.67;3.58;;;48.00;38.20;;;;;;4973839;28;20665;-68
2023/07/15 10:07:02;;;;;;;3.65;3.55;;;48.00;38.10;;;;;;4973847;28;20191;-67
2023/07/15 10:09:33;;;;;;;3.20;3.10;;;48.10;38.60;;;;;;4974034;28;20250;-67
2023/07/15 10:12:00;;;;;;;3.30;3.20;;;48.10;37.60;;;;;;4974292;28;20168;-68
2023/07/15 10:14:30;;;;;;;3.80;3.70;;;47.90;36.80;;;;;;4991557;28;20294;-68
2023/07/15 10:17:12;;;;;;;3.50;3.40;;;48.00;37.40;;;;;;4993170;28;20254;-68
2023/07/15 10:19:42;;;;;;;3.78;3.67;;;48.00;36.40;;;;;;4993737;28;20175;-69
2023/07/15 10:22:09;;;;;;;3.83;3.72;;;47.90;36.90;;;;;;4993555;28;20693;-67
2023/07/15 10:24:34;;;;;;;4.07;3.95;;;47.90;36.70;;;;;;4993006;28;20226;-67
2023/07/15 10:27:03;;;;;;;4.43;4.22;;;48.10;36.50;;;;;;4992144;28;20175;-67
2023/07/15 10:29:32;;;;;;;3.60;3.50;;;48.20;36.20;;;;;;4956673;28;20649;-68
2023/07/15 10:32:07;;;;;;;3.28;3.17;;;48.20;36.80;;;;;;4981152;28;20266;-67
2023/07/15 10:34:49;;;;;;;3.63;3.53;;;48.30;36.10;;;;;;4993134;28;20190;-67
2023/07/15 10:37:17;;;;;;;3.50;3.40;;;48.20;35.20;;;;;;4975904;28;20183;-68
2023/07/15 10:39:43;;;;;;;3.25;3.05;;;48.10;35.70;;;;;;4993440;28;20171;-67
2023/07/15 10:42:13;;;;;;;3.45;3.35;;;47.60;35.10;;;;;;4981238;28;20199;-68
2023/07/15 10:44:44;;;;;;;2.47;2.37;;;46.80;35.50;;;;;;4973432;28;20188;-67
2023/07/15 10:47:10;;;;;;;2.57;2.47;;;45.70;36.30;;;;;;4975762;28;20168;-67
2023/07/15 10:49:36;;;;;;;2.00;1.90;;;44.50;36.80;;;;;;4977402;28;20412;-66
2023/07/15 10:52:04;;;;;;;2.20;2.10;;;43.70;37.60;;;;;;4977428;28;20411;-67
2023/07/15 10:54:31;;;;;;;2.07;1.97;;;43.10;38.40;;;;;;4976918;28;20250;-68
2023/07/15 10:56:57;;;;;;;1.70;1.60;;;42.40;39.40;;;;;;4994869;28;20530;-68
2023/07/15 10:59:31;;;;;;;2.93;2.73;;;42.10;40.00;;;;;;4996534;28;20458;-68
2023/07/15 11:01:58;;;;;;;1.90;1.80;;;42.20;39.40;;;;;;4996449;28;20395;-69
2023/07/15 11:04:24;;;;;;;2.07;1.97;;;42.40;38.50;;;;;;4995982;28;20449;-68
2023/07/15 11:06:50;;;;;;;2.10;2.00;;;42.10;39.20;;;;;;4996416;28;20419;-67
2023/07/15 11:09:17;;;;;;;2.10;2.00;;;41.80;39.60;;;;;;4982913;28;20176;-67
2023/07/15 11:11:43;;;;;;;1.90;1.80;;;41.60;40.60;;;;;;4976534;28;20652;-68
2023/07/15 11:14:40;;;;;;;2.37;2.27;;;41.60;40.30;;;;;;4976533;28;20486;-67
2023/07/15 11:17:07;;;;;;;1.70;1.60;;;41.40;39.70;;;;;;4961100;28;20215;-68
2023/07/15 11:19:33;;;;;;;1.70;1.60;;;41.10;40.10;;;;;;4976975;28;20863;-68
2023/07/15 11:22:03;;;;;;;2.10;2.00;;;40.60;40.40;;;;;;4978498;28;20424;-67
2023/07/15 11:24:29;;;;;;;3.03;2.27;;;40.20;40.70;;;;;;4994936;28;20547;-67
2023/07/15 11:26:59;;;;;;;2.40;2.30;;;39.80;41.40;;;;;;4978638;28;20386;-67
2023/07/15 11:29:25;;;;;;;2.27;2.17;;;39.60;42.00;;;;;;4995978;28;20170;-67
2023/07/15 11:31:53;;;;;;;1.80;1.70;;;39.30;42.40;;;;;;4996680;28;20403;-66
2023/07/15 11:34:22;;;;;;;2.33;2.03;;;39.10;42.10;;;;;;4978107;28;20510;-68
2023/07/15 11:36:52;;;;;;;2.10;2.00;;;39.10;43.30;;;;;;4992959;28;20468;-68
2023/07/15 11:39:18;;;;;;;1.90;1.80;;;39.20;43.80;;;;;;4976476;28;20554;-67
2023/07/15 11:41:44;;;;;;;2.77;2.57;;;39.20;42.10;;;;;;4976524;28;20435;-67
2023/07/15 11:44:14;;;;;;;2.10;2.00;;;39.10;42.20;;;;;;4975915;28;20176;-67
2023/07/15 11:46:44;;;;;;;2.23;2.10;;;39.20;43.00;;;;;;4976474;28;20710;-68
2023/07/15 11:49:10;;;;;;;1.80;1.70;;;39.10;43.00;;;;;;4975990;28;20412;-68
2023/07/15 11:51:39;;;;;;;2.20;2.10;;;38.70;42.90;;;;;;4985395;28;20488;-68
2023/07/15 11:54:09;;;;;;;2.17;2.07;;;38.50;42.60;;;;;;4977417;28;20419;-68
2023/07/15 11:56:45;;;;;;;2.10;2.00;;;38.20;42.20;;;;;;4995445;28;20920;-67
2023/07/15 11:59:23;;;;;;;1.77;1.67;;;38.00;42.70;;;;;;4994683;28;20541;-68
2023/07/15 12:01:49;;;;;;;2.50;2.30;;;37.70;42.80;;;;;;4995477;28;20403;-67
2023/07/15 12:04:16;;;;;;;1.70;1.60;;;37.40;43.40;;;;;;4994767;28;20432;-67
2023/07/15 12:06:54;;;;;;;2.47;2.33;;;37.30;43.70;;;;;;4990800;28;20199;-67
2023/07/15 12:09:21;;;;;;;2.17;2.07;;;37.20;46.00;;;;;;4995138;28;20374;-68
2023/07/15 12:11:48;;;;;;;2.43;2.30;;;37.00;47.20;;;;;;4995172;28;20493;-67
2023/07/15 12:14:15;;;;;;;2.70;2.40;;;36.80;47.50;;;;;;4994500;28;20410;-67
2023/07/15 12:16:42;;;;;;;2.10;2.00;;;36.60;47.30;;;;;;4994944;28;20497;-67
2023/07/15 12:19:13;;;;;;;2.23;2.13;;;36.50;47.90;;;;;;4994768;28;20911;-67
2023/07/15 12:21:39;;;;;;;2.30;2.20;;;36.40;48.40;;;;;;4976475;28;20401;-67
2023/07/15 12:24:05;;;;;;;1.77;1.67;;;36.40;47.10;;;;;;4994688;28;20389;-67
2023/07/15 12:26:31;;;;;;;1.60;1.50;;;36.50;48.30;;;;;;4995195;28;20425;-67
2023/07/15 12:28:57;;;;;;;2.13;2.03;;;36.50;47.20;;;;;;4995423;28;20180;-66
2023/07/15 12:31:23;;;;;;;2.23;2.13;;;36.60;47.40;;;;;;4994800;28;20179;-67
2023/07/15 12:33:48;;;;;;;2.20;2.10;;;36.60;45.70;;;;;;4993338;28;20411;-67
2023/07/15 12:36:15;;;;;;;2.00;1.90;;;36.40;45.20;;;;;;4975174;28;20282;-68
2023/07/15 12:38:41;;;;;;;1.90;1.80;;;36.20;45.70;;;;;;4975458;28;20208;-67
2023/07/15 12:41:08;;;;;;;1.90;1.80;;;36.10;45.40;;;;;;4975424;28;20405;-68
2023/07/15 12:43:35;;;;;;;2.33;2.23;;;36.10;46.00;;;;;;4957370;28;20394;-68
2023/07/15 12:46:01;;;;;;;1.90;1.80;;;36.00;45.50;;;;;;4975179;28;20424;-67
2023/07/15 12:48:27;;;;;;;2.00;1.90;;;35.90;45.90;;;;;;4988768;28;20415;-67
2023/07/15 12:50:53;;;;;;;2.87;2.57;;;35.90;45.60;;;;;;4977023;28;20397;-68
2023/07/15 12:53:21;;;;;;;1.83;1.73;;;36.00;45.20;;;;;;4977782;28;20499;-68
2023/07/15 12:55:46;;;;;;;2.43;2.23;;;36.00;45.20;;;;;;4975408;28;20937;-67
2023/07/15 12:58:13;;;;;;;2.07;1.90;;;36.10;45.70;;;;;;4957593;28;20491;-68
2023/07/15 13:00:39;;;;;;;1.60;1.50;;;36.10;46.40;;;;;;4975101;28;20560;-67
2023/07/15 13:03:07;;;;;;;1.90;1.80;;;36.20;47.10;;;;;;4975362;28;20507;-68
2023/07/15 13:05:33;;;;;;;1.90;1.80;;;36.30;45.80;;;;;;4974318;28;20234;-67
2023/07/15 13:07:59;;;;;;;1.63;1.53;;;36.40;45.10;;;;;;4975321;28;20783;-68
2023/07/15 13:10:25;;;;;;;2.10;1.90;;;36.40;45.50;;;;;;4974911;28;20419;-68
2023/07/15 13:12:50;;;;;;;1.97;1.87;;;36.40;45.60;;;;;;4956814;28;20183;-67
2023/07/15 13:15:16;;;;;;;3.30;3.00;;;36.40;45.50;;;;;;4973894;28;20431;-68
2023/07/15 13:17:41;;;;;;;2.80;2.60;;;36.50;45.30;;;;;;4991952;28;20203;-71
2023/07/15 13:20:12;;;;;;;2.63;2.43;;;36.60;44.80;;;;;;4994085;28;20167;-70
2023/07/15 13:22:38;;;;;;;2.30;1.93;;;36.70;44.70;;;;;;4977039;28;20184;-68
2023/07/15 13:25:05;;;;;;;1.60;1.50;;;36.70;44.10;;;;;;4993712;28;20423;-67
2023/07/15 13:27:32;;;;;;;1.73;1.63;;;36.80;43.50;;;;;;4976852;28;20509;-68
2023/07/15 13:29:58;;;;;;;2.00;1.90;;;36.80;43.00;;;;;;4994257;28;20427;-67
2023/07/15 13:32:24;;;;;;;1.97;1.87;;;36.80;43.60;;;;;;4976346;28;20521;-67
2023/07/15 13:34:49;;;;;;;1.60;1.50;;;36.80;43.80;;;;;;4973882;28;20204;-67
2023/07/15 13:37:15;;;;;;;1.80;1.70;;;36.80;44.70;;;;;;4974265;28;20168;-67
2023/07/15 13:39:42;;;;;;;2.23;2.03;;;36.80;44.20;;;;;;4973356;28;20223;-70
2023/07/15 13:42:18;;;;;;;2.40;2.23;;;36.80;43.30;;;;;;4973791;28;20183;-67
2023/07/15 13:44:47;;;;;;;2.60;2.40;;;36.80;44.60;;;;;;4960461;28;20524;-66
2023/07/15 13:47:13;;;;;;;2.83;2.63;;;36.60;46.50;;;;;;4993148;28;20382;-68
2023/07/15 13:49:39;;;;;;;2.57;2.37;;;36.60;48.20;;;;;;4993883;28;20462;-67
2023/07/15 13:52:05;;;;;;;2.40;2.23;;;36.50;48.00;;;;;;4993943;28;20254;-66
2023/07/15 13:54:31;;;;;;;2.33;2.20;;;36.50;47.20;;;;;;4993247;28;20209;-66
2023/07/15 13:56:57;;;;;;;2.40;2.30;;;36.30;47.50;;;;;;4992506;28;20386;-69
2023/07/15 13:59:24;;;;;;;2.43;2.33;;;36.20;48.40;;;;;;4970962;28;20550;-67
2023/07/15 14:01:51;;;;;;;2.50;2.30;;;36.10;48.50;;;;;;4973843;28;20168;-67
2023/07/15 14:04:16;;;;;;;3.00;2.57;;;36.00;48.70;;;;;;4956382;28;20423;-66
2023/07/15 14:06:46;;;;;;;2.53;2.33;;;35.90;48.60;;;;;;4973999;28;20517;-67
2023/07/15 14:09:13;;;;;;;2.50;2.37;;;35.80;48.40;;;;;;4956796;28;20705;-67
2023/07/15 14:11:40;;;;;;;2.30;2.10;;;35.60;48.70;;;;;;4974236;28;20907;-67
2023/07/15 14:14:06;;;;;;;5.40;2.77;;;35.50;49.30;;;;;;4983038;28;20401;-68
2023/07/15 14:16:31;;;;;;;2.67;2.47;;;35.40;49.90;;;;;;4993698;28;20508;-67
2023/07/15 14:18:57;;;;;;;3.20;3.00;;;35.40;50.10;;;;;;4993645;28;20230;-67
2023/07/15 14:21:23;;;;;;;2.73;2.53;;;35.40;49.60;;;;;;4976582;28;20187;-66
2023/07/15 14:23:49;;;;;;;2.50;2.30;;;35.40;49.90;;;;;;4997129;28;20373;-67
2023/07/15 14:26:15;;;;;;;3.23;2.93;;;35.40;50.70;;;;;;4993220;28;20243;-66
2023/07/15 14:28:41;;;;;;;2.67;2.47;;;35.50;50.30;;;;;;4977840;28;20411;-68
2023/07/15 14:31:09;;;;;;;2.17;2.07;;;35.60;50.60;;;;;;4977888;28;20211;-67
2023/07/15 14:33:35;;;;;;;2.47;2.37;;;35.60;50.80;;;;;;4960069;28;20168;-68
2023/07/15 14:36:01;;;;;;;3.10;2.60;;;35.50;50.10;;;;;;4978679;28;20439;-68
2023/07/15 14:38:26;;;;;;;2.30;2.20;;;35.40;50.00;;;;;;4977473;28;20208;-67
2023/07/15 14:40:52;;;;;;;2.50;2.40;;;35.30;50.30;;;;;;4977610;28;20389;-68
2023/07/15 14:43:18;;;;;;;2.73;2.53;;;35.20;50.90;;;;;;4977445;28;20177;-67
2023/07/15 14:45:45;;;;;;;2.73;2.53;;;35.00;50.70;;;;;;4977350;28;20188;-67
2023/07/15 14:48:11;;;;;;;2.80;2.60;;;34.80;50.90;;;;;;4977562;28;20932;-67
2023/07/15 14:50:36;;;;;;;2.77;2.60;;;34.60;51.20;;;;;;4954082;28;20919;-68
2023/07/15 14:53:06;;;;;;;2.70;2.50;;;34.40;51.00;;;;;;4996947;28;20378;-67
2023/07/15 14:55:36;;;;;;;3.10;2.80;;;34.20;51.50;;;;;;4996456;28;20183;-67
2023/07/15 14:58:02;;;;;;;3.03;2.80;;;34.00;51.70;;;;;;4996789;28;20520;-67
2023/07/15 15:00:27;;;;;;;2.70;2.50;;;33.80;52.10;;;;;;4996803;28;20427;-68
2023/07/15 15:02:54;;;;;;;2.80;2.60;;;33.70;52.80;;;;;;4997269;28;20411;-67
2023/07/15 15:05:19;;;;;;;2.47;2.30;;;33.60;52.90;;;;;;4980578;28;20671;-67
2023/07/15 15:07:45;;;;;;;3.30;3.10;;;33.40;53.00;;;;;;4977017;28;20477;-67
2023/07/15 15:10:10;;;;;;;3.90;2.90;;;33.30;53.70;;;;;;4977052;28;20199;-67
2023/07/15 15:12:36;;;;;;;2.83;2.63;;;33.10;54.70;;;;;;4977075;28;20223;-67
2023/07/15 15:15:03;;;;;;;3.00;2.80;;;32.80;55.40;;;;;;4976478;28;20192;-67
2023/07/15 15:17:28;;;;;;;2.70;2.50;;;32.60;55.70;;;;;;4976704;28;20227;-66
2023/07/15 15:19:54;;;;;;;2.70;2.50;;;32.50;56.40;;;;;;4990140;28;20459;-66
2023/07/15 15:22:19;;;;;;;2.57;2.47;;;32.20;56.40;;;;;;4995911;28;20176;-67
2023/07/15 15:24:45;;;;;;;2.80;2.60;;;31.80;56.80;;;;;;4995786;28;20668;-67
2023/07/15 15:27:10;;;;;;;3.07;2.77;;;31.40;57.60;;;;;;4978824;28;20630;-67
2023/07/15 15:29:36;;;;;;;3.00;2.80;;;31.10;58.60;;;;;;4996222;28;20511;-70
2023/07/15 15:32:02;;;;;;;2.33;2.13;;;30.80;59.60;;;;;;4984666;28;20184;-67
2023/07/15 15:34:27;;;;;;;2.67;2.47;;;30.50;61.20;;;;;;4978704;28;20199;-64
2023/07/15 15:36:53;;;;;;;3.93;2.77;;;30.20;65.60;;;;;;5000765;28;20190;-70
2023/07/15 15:39:18;;;;;;;2.83;2.60;;;29.90;69.30;;;;;;5015639;28;20191;-67
2023/07/15 15:41:44;;;;;;;5.33;2.00;;;29.70;70.60;;;;;;5015526;28;20242;-67
2023/07/15 15:44:10;;;;;;;2.23;2.13;;;29.40;70.80;;;;;;4984316;28;20176;-69
2023/07/15 15:46:35;;;;;;;2.57;2.37;;;29.30;71.70;;;;;;4976279;28;20657;-70
2023/07/15 15:49:01;;;;;;;2.50;2.27;;;29.10;73.10;;;;;;4976084;28;20216;-68
2023/07/15 15:51:27;;;;;;;3.10;2.80;;;28.90;73.90;;;;;;4983278;28;20175;-68
2023/07/15 15:53:57;;;;;;;2.60;2.40;;;28.80;74.10;;;;;;4974973;28;20389;-69
2023/07/15 15:56:24;;;;;;;1.80;1.70;;;28.60;75.40;;;;;;4985606;28;20203;-68
2023/07/15 15:58:50;;;;;;;2.37;2.17;;;28.50;76.30;;;;;;4994996;28;20477;-71
2023/07/15 16:01:15;;;;;;;2.83;2.40;;;28.40;75.70;;;;;;4991037;28;20385;-68
2023/07/15 16:03:41;;;;;;;2.93;2.73;;;28.40;75.30;;;;;;4975549;28;20458;-68
2023/07/15 16:06:07;;;;;;;2.00;1.90;;;28.40;76.00;;;;;;4975908;28;20204;-69
2023/07/15 16:08:33;;;;;;;3.50;3.20;;;28.40;76.10;;;;;;4975999;28;20184;-68
2023/07/15 16:10:58;;;;;;;1.80;1.70;;;28.40;75.90;;;;;;4975663;28;20267;-68
2023/07/15 16:13:27;;;;;;;2.70;2.50;;;28.40;76.30;;;;;;4975305;28;20203;-69
2023/07/15 16:15:53;;;;;;;2.73;2.53;;;28.50;77.80;;;;;;4958153;28;20196;-68
2023/07/15 16:18:19;;;;;;;3.03;2.83;;;28.50;76.60;;;;;;4975423;28;20528;-69
2023/07/15 16:20:45;;;;;;;4.23;2.80;;;28.70;75.50;;;;;;4975424;28;20164;-68
2023/07/15 16:23:11;;;;;;;2.43;2.13;;;28.80;75.70;;;;;;4975681;28;20733;-72
2023/07/15 16:25:37;;;;;;;10.53;2.53;;;28.90;74.90;;;;;;4979701;28;20772;-69
2023/07/15 16:28:04;;;;;;;2.53;2.33;;;28.90;74.70;;;;;;4994579;28;20222;-69
2023/07/15 16:30:30;;;;;;;2.77;2.57;;;28.90;74.70;;;;;;4995174;28;20398;-69
2023/07/15 16:32:56;;;;;;;2.17;2.00;;;29.00;75.00;;;;;;4994774;28;20390;-69
2023/07/15 16:35:21;;;;;;;2.97;2.77;;;29.00;75.80;;;;;;4994353;28;20463;-68
2023/07/15 16:37:47;;;;;;;2.40;2.30;;;29.00;75.80;;;;;;4994752;28;20202;-69
2023/07/15 16:40:12;;;;;;;3.00;2.80;;;29.00;76.70;;;;;;4990958;28;20176;-69
2023/07/15 16:42:38;;;;;;;2.50;2.40;;;28.90;78.50;;;;;;4975176;28;20172;-69
2023/07/15 16:45:04;;;;;;;2.73;2.53;;;28.90;78.80;;;;;;4957056;28;20291;-69
2023/07/15 16:47:30;;;;;;;3.20;2.90;;;28.70;79.40;;;;;;4975557;28;20615;-69
2023/07/15 16:49:56;;;;;;;3.17;2.57;;;28.50;80.50;;;;;;4975256;28;20487;-70